Time;durP1;ratioP1;P1;durP2;ratioP2;P2;SDS_P1;SDS_P2;PMS_P1;PMS_P2;Temp;Humidity;BMP_temperature;BMP_pressure;BME280_temperature;BME280_humidity;BME280_pressure;Samples;Min_cycle;Max_cycle;Signal;HPM_P1;HPM_P2
2022/06/14 00:03:15;;;;;;;15.13;10.25;;;;;;;22.64;100.00;100778.13;5096018;28;20541;-74
2022/06/14 00:06:08;;;;;;;12.30;10.40;;;;;;;22.73;100.00;100782.84;5095802;28;20028;-73
2022/06/14 00:08:54;;;;;;;11.63;10.43;;;;;;;22.52;100.00;100786.06;5095548;28;20024;-73
2022/06/14 00:11:40;;;;;;;15.10;11.00;;;;;;;22.45;100.00;100782.91;5082603;28;20024;-73
2022/06/14 00:14:26;;;;;;;13.30;11.52;;;;;;;22.28;100.00;100785.84;5095019;28;20056;-73
2022/06/14 00:17:12;;;;;;;14.77;11.15;;;;;;;22.39;100.00;100780.63;5095887;28;20028;-74
2022/06/14 00:19:58;;;;;;;12.00;10.65;;;;;;;22.34;100.00;100780.09;5081971;28;20368;-73
2022/06/14 00:22:44;;;;;;;12.13;10.38;;;;;;;21.90;100.00;100787.41;5095206;28;20116;-73
2022/06/14 00:25:36;;;;;;;14.25;11.23;;;;;;;22.38;100.00;100773.59;5095152;28;20024;-73
2022/06/14 00:28:28;;;;;;;17.17;11.10;;;;;;;22.09;100.00;100771.06;5080313;28;20407;-72
2022/06/14 00:31:18;;;;;;;17.73;11.23;;;;;;;22.28;100.00;100774.28;5095374;28;20089;-74
2022/06/14 00:34:06;;;;;;;12.10;10.30;;;;;;;22.21;100.00;100773.81;5095708;28;20040;-73
2022/06/14 00:36:54;;;;;;;16.73;11.43;;;;;;;21.63;100.00;100770.44;5081957;28;20441;-73
2022/06/14 00:39:40;;;;;;;13.18;10.98;;;;;;;21.73;100.00;100776.06;5095817;28;20028;-74
2022/06/14 00:42:28;;;;;;;14.07;11.75;;;;;;;21.83;100.00;100780.72;5095603;28;20116;-73
2022/06/14 00:45:19;;;;;;;18.67;11.68;;;;;;;21.79;100.00;100778.34;5094833;28;20108;-73
2022/06/14 00:48:18;;;;;;;15.80;11.23;;;;;;;21.68;100.00;100775.47;5095959;28;20035;-73
2022/06/14 00:51:04;;;;;;;14.32;11.70;;;;;;;21.81;100.00;100777.31;5066750;28;20081;-73
2022/06/14 00:54:04;;;;;;;17.05;12.05;;;;;;;21.83;100.00;100780.72;5095046;28;20092;-73
2022/06/14 00:57:01;;;;;;;15.93;11.80;;;;;;;21.74;100.00;100777.78;5096139;28;20032;-73
2022/06/14 00:59:57;;;;;;;17.63;11.02;;;;;;;21.68;100.00;100786.13;5080700;28;20039;-73
2022/06/14 01:02:50;;;;;;;15.75;11.23;;;;;;;21.66;100.00;100790.72;5095188;28;20035;-73
2022/06/14 01:06:13;;;;;;;13.32;11.35;;;;;;;21.85;100.00;100784.16;5080709;28;20020;-74
2022/06/14 01:09:09;;;;;;;16.83;12.02;;;;;;;21.19;100.00;100777.63;5061850;28;20356;-73
2022/06/14 01:12:09;;;;;;;16.75;12.05;;;;;;;21.39;100.00;100787.06;5095452;28;20031;-74
2022/06/14 01:15:16;;;;;;;13.73;11.40;;;;;;;21.29;100.00;100784.09;5080368;28;20474;-73
2022/06/14 01:18:09;;;;;;;14.27;11.98;;;;;;;21.15;100.00;100776.09;5080972;28;20032;-73
2022/06/14 01:20:55;;;;;;;18.27;11.80;;;;;;;21.50;100.00;100771.28;5095576;28;20024;-74
2022/06/14 01:23:41;;;;;;;15.18;12.32;;;;;;;21.82;100.00;100776.34;5095604;28;20448;-74
2022/06/14 01:26:29;;;;;;;14.18;11.48;;;;;;;21.77;100.00;100766.91;5080946;28;20125;-74
2022/06/14 01:29:16;;;;;;;13.07;10.77;;;;;;;21.81;100.00;100769.31;5096145;28;20106;-73
2022/06/14 01:32:06;;;;;;;19.25;11.30;;;;;;;21.52;100.00;100766.69;5094712;28;20403;-73
2022/06/14 01:34:56;;;;;;;14.15;11.40;;;;;;;21.64;100.00;100765.94;5095117;28;20433;-74
2022/06/14 01:37:42;;;;;;;16.27;11.65;;;;;;;21.45;100.00;100760.88;5094506;28;20111;-72
2022/06/14 01:40:38;;;;;;;17.17;11.95;;;;;;;21.22;100.00;100764.09;5093554;28;20180;-73
2022/06/14 01:43:51;;;;;;;15.82;11.57;;;;;;;21.51;100.00;100763.19;5095320;28;20024;-74
2022/06/14 01:47:14;;;;;;;15.00;11.70;;;;;;;21.41;100.00;100766.47;5079291;28;20110;-73
2022/06/14 01:53:56;;;;;;;15.63;10.75;;;;;;;21.27;100.00;100763.81;5094179;28;20099;-73
2022/06/14 01:56:48;;;;;;;14.23;11.30;;;;;;;21.55;100.00;100764.72;5094983;28;20035;-72
2022/06/14 01:59:34;;;;;;;15.05;11.75;;;;;;;21.38;100.00;100769.34;5080692;28;20448;-73
2022/06/14 02:02:38;;;;;;;16.25;10.77;;;;;;;21.47;100.00;100769.66;5094119;28;20115;-74
2022/06/14 02:05:32;;;;;;;16.13;11.00;;;;;;;21.27;100.00;100775.34;5080273;28;20082;-73
2022/06/14 02:08:23;;;;;;;14.88;11.52;;;;;;;21.27;100.00;100774.47;5094626;28;20028;-74
2022/06/14 02:11:15;;;;;;;14.65;11.02;;;;;;;21.21;100.00;100775.69;5093984;28;20534;-73
2022/06/14 02:14:33;;;;;;;14.60;11.30;;;;;;;21.13;100.00;100767.31;5093271;28;20325;-75
2022/06/14 02:17:31;;;;;;;14.52;10.68;;;;;;;21.08;100.00;100774.72;5094251;28;20119;-73
2022/06/14 02:20:22;;;;;;;14.13;11.32;;;;;;;21.30;100.00;100767.13;5083339;28;20028;-73
2022/06/14 02:23:09;;;;;;;16.75;11.05;;;;;;;21.09;100.00;100765.78;5083230;28;20093;-73
2022/06/14 02:26:02;;;;;;;16.25;11.20;;;;;;;20.88;100.00;100772.34;5098670;28;20023;-73
2022/06/14 02:28:53;;;;;;;15.30;11.15;;;;;;;21.01;100.00;100776.03;5098271;28;20030;-73
2022/06/14 02:31:50;;;;;;;14.02;10.73;;;;;;;20.99;100.00;100777.06;5098929;28;20047;-73
2022/06/14 02:34:53;;;;;;;13.35;10.80;;;;;;;20.92;100.00;100786.38;5097886;28;20023;-73
2022/06/14 02:37:48;;;;;;;18.98;10.98;;;;;;;21.01;100.00;100788.50;5098075;28;20036;-74
2022/06/14 02:40:37;;;;;;;14.90;10.52;;;;;;;21.09;100.00;100781.75;5098574;28;20357;-73
2022/06/14 02:43:30;;;;;;;18.38;11.55;;;;;;;20.96;100.00;100793.22;5099081;28;20016;-73
2022/06/14 02:46:26;;;;;;;14.52;11.23;;;;;;;21.07;100.00;100789.00;5098396;28;20028;-73
2022/06/14 02:49:34;;;;;;;15.80;11.18;;;;;;;21.12;100.00;100786.91;5098575;28;20089;-73
2022/06/14 02:52:29;;;;;;;14.10;11.23;;;;;;;21.07;100.00;100791.66;5097696;28;20364;-73
2022/06/14 02:55:25;;;;;;;14.13;11.10;;;;;;;21.29;100.00;100794.75;5083718;28;20032;-73
2022/06/14 02:58:23;;;;;;;13.45;11.00;;;;;;;21.53;100.00;100809.25;5096554;28;20036;-73
2022/06/14 03:01:17;;;;;;;13.30;11.05;;;;;;;21.51;100.00;100818.31;5098098;28;20020;-74
2022/06/14 03:04:18;;;;;;;13.40;10.50;;;;;;;21.67;100.00;100829.75;5097407;28;20099;-74
2022/06/14 03:07:15;;;;;;;14.10;11.35;;;;;;;21.44;100.00;100827.63;5083757;28;20096;-74
2022/06/14 03:10:01;;;;;;;13.55;12.02;;;;;;;21.42;100.00;100826.88;5083431;28;20084;-73
2022/06/14 03:13:01;;;;;;;12.27;10.95;;;;;;;21.71;100.00;100826.00;5096575;28;20027;-74
2022/06/14 03:15:50;;;;;;;14.57;11.68;;;;;;;21.74;100.00;100826.66;5082032;28;20066;-73
2022/06/14 03:18:49;;;;;;;15.52;12.20;;;;;;;21.98;100.00;100832.28;5083377;28;20036;-73
2022/06/14 03:21:43;;;;;;;14.95;13.18;;;;;;;22.09;100.00;100830.66;5097686;28;20042;-74
2022/06/14 03:24:46;;;;;;;13.95;12.20;;;;;;;21.96;100.00;100837.72;5097940;28;20032;-73
2022/06/14 03:27:55;;;;;;;16.25;12.85;;;;;;;21.71;100.00;100840.19;5097789;28;20106;-74
2022/06/14 03:31:04;;;;;;;17.00;13.05;;;;;;;22.01;100.00;100840.94;5097492;28;20357;-73
2022/06/14 03:34:05;;;;;;;15.63;13.82;;;;;;;22.03;100.00;100841.69;5097551;28;20028;-73
2022/06/14 03:36:53;;;;;;;14.77;12.45;;;;;;;21.84;100.00;100843.81;5097816;28;20024;-74
2022/06/14 03:39:48;;;;;;;15.98;14.27;;;;;;;22.04;100.00;100845.22;5097078;28;20376;-74
2022/06/14 03:42:35;;;;;;;15.55;13.40;;;;;;;21.63;100.00;100857.56;5098080;28;20448;-74
2022/06/14 03:45:33;;;;;;;14.48;12.57;;;;;;;21.82;100.00;100851.03;5095851;28;20455;-73
2022/06/14 03:48:22;;;;;;;17.70;13.30;;;;;;;21.88;100.00;100853.34;5097509;28;20020;-73
2022/06/14 03:52:06;;;;;;;18.23;13.63;;;;;;;21.55;100.00;100854.50;5096816;28;20035;-75
2022/06/14 03:55:27;;;;;;;19.30;13.45;;;;;;;21.75;100.00;100852.38;5015738;28;20057;-74
2022/06/14 03:58:35;;;;;;;16.23;13.13;;;;;;;21.58;100.00;100847.16;5015144;28;20033;-73
2022/06/14 04:01:28;;;;;;;17.13;13.68;;;;;;;22.00;100.00;100849.91;5082642;28;20100;-74
2022/06/14 04:19:46;;;;;;;22.48;14.10;;;;;;;22.39;100.00;100852.72;5078617;28;20503;-74
2022/06/14 04:23:12;;;;;;;20.33;12.95;;;;;;;22.44;100.00;100861.31;5096611;28;20055;-74
2022/06/14 04:26:05;;;;;;;17.42;13.15;;;;;;;22.27;100.00;100863.34;5097179;28;20028;-74
2022/06/14 04:29:24;;;;;;;17.02;13.10;;;;;;;22.29;100.00;100864.94;5095147;28;20096;-73
2022/06/14 04:32:29;;;;;;;17.05;12.90;;;;;;;22.02;100.00;100866.69;5097144;28;20024;-72
2022/06/14 04:35:20;;;;;;;19.90;13.50;;;;;;;22.17;100.00;100863.06;5096983;28;20016;-74
2022/06/14 04:38:20;;;;;;;22.40;13.82;;;;;;;22.19;100.00;100862.97;5095267;28;20037;-73
2022/06/14 04:41:10;;;;;;;17.63;13.10;;;;;;;22.24;100.00;100874.19;5096384;28;20027;-73
2022/06/14 04:44:05;;;;;;;16.73;13.60;;;;;;;21.91;100.00;100871.81;5080483;28;20043;-74
2022/06/14 04:47:04;;;;;;;20.73;13.88;;;;;;;22.12;100.00;100875.84;5081514;28;20020;-74
2022/06/14 04:50:02;;;;;;;15.27;13.68;;;;;;;22.31;100.00;100873.72;5095955;28;20039;-73
2022/06/14 04:52:53;;;;;;;16.27;13.25;;;;;;;22.75;100.00;100878.94;5095653;28;20024;-73
2022/06/14 04:55:53;;;;;;;15.60;13.38;;;;;;;22.47;100.00;100882.50;5081632;28;20028;-73
2022/06/14 04:58:44;;;;;;;16.35;12.48;;;;;;;22.47;100.00;100882.50;5095317;28;20020;-74
2022/06/14 05:01:35;;;;;;;15.65;13.73;;;;;;;22.73;100.00;100888.84;5094865;28;20100;-74
2022/06/14 05:04:37;;;;;;;17.48;13.30;;;;;;;22.51;100.00;100892.03;5095314;28;20028;-74
2022/06/14 05:07:29;;;;;;;20.15;14.60;;;;;;;22.67;100.00;100889.25;5095330;28;20067;-73
2022/06/14 05:10:20;;;;;;;15.80;13.63;;;;;;;22.44;100.00;100898.72;5079791;28;20147;-74
2022/06/14 05:13:17;;;;;;;17.30;13.02;;;;;;;22.35;100.00;100885.06;5096235;28;20028;-73
2022/06/14 05:16:08;;;;;;;17.17;13.95;;;;;;;22.80;100.00;100892.84;5095187;28;20043;-73
2022/06/14 05:18:57;;;;;;;19.98;13.95;;;;;;;23.04;100.00;100899.25;5095557;28;20028;-72
2022/06/14 05:21:49;;;;;;;15.88;12.60;;;;;;;23.02;100.00;100896.69;5094459;28;20031;-72
2022/06/14 05:24:37;;;;;;;15.25;12.43;;;;;;;23.27;100.00;100904.81;5094209;28;20508;-73
2022/06/14 05:27:44;;;;;;;16.23;12.93;;;;;;;23.43;100.00;100902.00;5095684;28;20036;-74
2022/06/14 05:30:52;;;;;;;16.35;13.60;;;;;;;23.62;100.00;100902.44;5095928;28;20499;-74
2022/06/14 05:33:57;;;;;;;18.50;13.82;;;;;;;23.12;100.00;100904.94;5080561;28;20444;-73
2022/06/14 05:36:53;;;;;;;20.63;13.13;;;;;;;23.24;100.00;100913.03;5080567;28;20034;-73
2022/06/14 05:39:59;;;;;;;17.15;13.85;;;;;;;23.30;100.00;100906.44;5080816;28;20028;-73
2022/06/14 05:42:55;;;;;;;15.75;11.82;;;;;;;23.62;100.00;100907.78;5080766;28;20357;-74
2022/06/14 05:45:55;;;;;;;15.50;12.70;;;;;;;23.36;100.00;100916.72;5094379;28;20020;-74
2022/06/14 05:48:52;;;;;;;13.55;12.23;;;;;;;23.71;100.00;100914.34;5094794;28;20028;-74
2022/06/14 05:51:47;;;;;;;14.88;12.70;;;;;;;23.92;100.00;100921.78;5094188;28;20028;-73
2022/06/14 05:54:38;;;;;;;14.98;12.50;;;;;;;23.82;100.00;100914.47;5093677;28;20043;-73
2022/06/14 05:57:58;;;;;;;14.30;12.18;;;;;;;24.01;100.00;100918.47;5080503;28;20079;-73
2022/06/14 06:00:51;;;;;;;14.15;11.93;;;;;;;24.12;100.00;100920.41;5095061;28;20028;-73
2022/06/14 06:04:08;;;;;;;16.98;12.57;;;;;;;24.08;100.00;100925.13;5094855;28;20028;-74
2022/06/14 06:07:00;;;;;;;18.95;13.35;;;;;;;24.31;100.00;100926.19;5080858;28;20039;-73
2022/06/14 06:09:52;;;;;;;15.25;12.07;;;;;;;23.89;100.00;100923.78;5080855;28;20052;-73
2022/06/14 06:12:49;;;;;;;16.83;12.27;;;;;;;24.05;100.00;100929.81;5094711;28;20024;-74
2022/06/14 06:15:43;;;;;;;14.70;12.75;;;;;;;24.65;100.00;100930.88;5080267;28;20020;-75
2022/06/14 06:18:43;;;;;;;14.82;12.02;;;;;;;24.46;100.00;100928.63;5093230;28;20035;-74
2022/06/14 06:21:53;;;;;;;14.80;13.02;;;;;;;24.63;100.00;100922.09;5093329;28;20472;-73
2022/06/14 06:25:00;;;;;;;15.75;12.45;;;;;;;24.88;100.00;100922.03;5080311;28;20115;-74
2022/06/14 06:28:05;;;;;;;15.52;12.35;;;;;;;24.16;100.00;100919.22;5080322;28;20461;-73
2022/06/14 06:31:11;;;;;;;16.70;12.25;;;;;;;24.58;100.00;100921.50;5080652;28;20119;-73
2022/06/14 06:34:02;;;;;;;14.38;12.82;;;;;;;24.98;100.00;100920.34;5079291;28;20153;-73
2022/06/14 06:37:10;;;;;;;16.83;13.75;;;;;;;25.35;100.00;100925.59;5097704;28;20019;-73
2022/06/14 06:40:01;;;;;;;16.33;12.38;;;;;;;25.51;100.00;100934.19;5080945;28;20081;-73
2022/06/14 06:42:59;;;;;;;13.10;11.80;;;;;;;25.01;100.00;100922.81;5094721;28;20031;-74
2022/06/14 06:45:49;;;;;;;13.10;11.65;;;;;;;25.52;100.00;100930.53;5093649;28;20104;-74
2022/06/14 06:48:43;;;;;;;19.95;12.23;;;;;;;24.89;100.00;100932.63;5094862;28;20031;-74
2022/06/14 06:51:36;;;;;;;15.45;12.60;;;;;;;25.04;100.00;100930.66;5078421;28;20356;-73
2022/06/14 06:54:34;;;;;;;15.27;11.98;;;;;;;25.54;100.00;100936.66;5092951;28;20044;-74
2022/06/14 06:57:24;;;;;;;15.27;11.85;;;;;;;25.31;100.00;100937.53;5094441;28;20032;-74
2022/06/14 07:00:13;;;;;;;18.52;12.50;;;;;;;25.81;100.00;100941.75;5079724;28;20038;-74
2022/06/14 07:03:16;;;;;;;12.63;11.32;;;;;;;26.09;100.00;100936.84;5095744;28;20205;-74
2022/06/14 07:06:05;;;;;;;13.73;12.32;;;;;;;25.42;100.00;100951.00;5082460;28;20096;-74
2022/06/14 07:09:00;;;;;;;13.98;12.48;;;;;;;26.16;100.00;100939.91;5083366;28;20035;-74
2022/06/14 07:11:55;;;;;;;13.77;12.38;;;;;;;26.64;100.00;100938.75;5099244;28;20089;-75
2022/06/14 07:14:52;;;;;;;14.05;12.45;;;;;;;26.66;100.00;100944.84;5083228;28;20028;-74
2022/06/14 07:17:46;;;;;;;13.35;11.52;;;;;;;26.79;100.00;100948.25;5097538;28;20081;-75
2022/06/14 07:20:48;;;;;;;15.98;11.68;;;;;;;26.76;100.00;100951.22;5083074;28;20115;-74
2022/06/14 07:23:38;;;;;;;13.77;12.00;;;;;;;27.02;100.00;100944.56;5098037;28;20118;-73
2022/06/14 07:26:40;;;;;;;20.08;12.70;;;;;;;27.28;100.00;100948.66;5083379;28;20025;-74
2022/06/14 07:29:51;;;;;;;12.57;11.27;;;;;;;27.77;100.00;100948.09;5097758;28;20085;-75
2022/06/14 07:32:46;;;;;;;19.88;12.52;;;;;;;26.97;100.00;100936.84;5082771;28;20028;-73
2022/06/14 07:35:49;;;;;;;16.40;12.65;;;;;;;27.15;100.00;100946.09;5098110;28;20441;-74
2022/06/14 07:38:46;;;;;;;14.75;12.20;;;;;;;27.86;100.00;100940.13;5097696;28;20027;-73
2022/06/14 07:41:42;;;;;;;13.48;12.10;;;;;;;28.06;100.00;100936.56;5097162;28;20036;-73
2022/06/14 07:44:37;;;;;;;19.25;12.57;;;;;;;28.46;100.00;100940.22;5098287;28;20028;-75
2022/06/14 07:47:48;;;;;;;15.00;12.40;;;;;;;28.55;100.00;100947.50;5097577;28;20330;-75
2022/06/14 07:50:40;;;;;;;12.98;11.20;;;;;;;29.29;100.00;100944.31;5083953;28;20059;-75
2022/06/14 07:53:28;;;;;;;14.35;12.38;;;;;;;28.96;100.00;100939.25;5082149;28;20028;-74
2022/06/14 07:56:36;;;;;;;16.38;12.30;;;;;;;29.53;100.00;100952.03;5098194;28;20393;-73
2022/06/14 07:59:28;;;;;;;13.43;12.02;;;;;;;29.48;100.00;100936.25;5097636;28;20115;-74
2022/06/14 08:02:21;;;;;;;17.55;12.25;;;;;;;30.29;100.00;100939.31;5097653;28;20024;-74
2022/06/14 08:05:18;;;;;;;16.58;11.48;;;;;;;30.52;100.00;100945.22;5097273;28;20020;-73
2022/06/14 08:08:07;;;;;;;16.63;12.02;;;;;;;29.84;100.00;100948.19;5082309;28;20081;-74
2022/06/14 08:10:57;;;;;;;18.08;11.40;;;;;;;29.19;100.00;100939.91;5098056;28;20024;-73
2022/06/14 08:13:50;;;;;;;16.88;11.77;;;;;;;29.22;100.00;100945.03;5084957;28;20123;-74
2022/06/14 08:16:37;;;;;;;19.77;10.80;;;;;;;29.37;100.00;100947.16;5096883;28;20028;-74
2022/06/14 08:19:29;;;;;;;13.95;11.25;;;;;;;29.54;100.00;100946.47;5097645;28;20062;-75
2022/06/14 08:22:27;;;;;;;11.30;10.02;;;;;;;29.58;100.00;100952.47;5098902;28;20027;-75
2022/06/14 08:25:18;;;;;;;12.57;9.88;;;;;;;29.91;100.00;100944.78;5112943;28;20031;-73
2022/06/14 08:28:29;;;;;;;11.20;10.07;;;;;;;30.32;100.00;100938.16;5115984;28;20035;-73
2022/06/14 08:31:23;;;;;;;13.57;10.32;;;;;;;29.64;100.00;100957.31;5102842;28;20024;-73
2022/06/14 08:34:09;;;;;;;13.27;10.48;;;;;;;29.78;100.00;100955.03;5115517;28;20027;-73
2022/06/14 08:37:04;;;;;;;14.98;11.02;;;;;;;29.47;100.00;100956.16;5113716;28;20023;-73
2022/06/14 08:40:02;;;;;;;13.75;10.45;;;;;;;29.58;100.00;100953.31;5119009;28;20038;-71
2022/06/14 08:43:23;;;;;;;12.88;10.60;;;;;;;29.52;100.00;100961.09;5104223;28;20019;-74
2022/06/14 08:46:34;;;;;;;11.32;10.27;;;;;;;29.61;100.00;100960.31;5104594;28;20031;-75
2022/06/14 08:49:57;;;;;;;11.50;10.23;;;;;;;29.75;100.00;100955.34;5118292;28;20038;-77
2022/06/14 08:53:08;;;;;;;12.82;9.65;;;;;;;29.71;100.00;100962.00;5116092;28;20020;-77
2022/06/14 08:55:56;;;;;;;11.48;10.27;;;;;;;30.17;100.00;100963.94;5114516;28;20024;-76
2022/06/14 08:59:01;;;;;;;14.23;10.57;;;;;;;29.88;100.00;100960.41;5112082;28;20046;-77
2022/06/14 09:02:08;;;;;;;12.13;10.93;;;;;;;29.26;100.00;100960.81;5091595;28;20055;-77
2022/06/14 09:05:32;;;;;;;12.77;10.57;;;;;;;29.30;100.00;100961.38;5097939;28;20068;-77
2022/06/14 09:08:33;;;;;;;14.25;10.65;;;;;;;30.23;100.00;100966.09;5084357;28;20020;-80
2022/06/14 09:11:43;;;;;;;13.70;10.32;;;;;;;30.43;100.00;100960.50;5083648;28;20020;-80
2022/06/14 09:14:35;;;;;;;10.65;9.55;;;;;;;29.57;100.00;100957.03;5097347;28;20020;-80
2022/06/14 09:17:49;;;;;;;12.02;9.73;;;;;;;29.19;100.00;100956.97;5099022;28;20056;-78
2022/06/14 09:21:01;;;;;;;12.20;9.32;;;;;;;29.36;100.00;100963.50;5095307;28;20475;-80
2022/06/14 09:24:12;;;;;;;10.38;9.38;;;;;;;29.05;100.00;100961.91;5106358;28;20077;-79
2022/06/14 09:27:13;;;;;;;11.13;9.10;;;;;;;28.73;100.00;100964.72;5100537;28;20023;-79
2022/06/14 09:30:43;;;;;;;13.75;9.80;;;;;;;29.18;100.00;100959.81;5100940;28;20333;-79
2022/06/14 09:33:41;;;;;;;10.48;9.38;;;;;;;29.14;100.00;100964.63;5100881;28;20397;-79
2022/06/14 09:36:48;;;;;;;12.07;10.82;;;;;;;28.94;100.00;100965.53;5103855;28;20083;-76
2022/06/14 09:39:50;;;;;;;10.93;9.15;;;;;;;28.33;100.00;100971.88;5104600;28;20510;-77
2022/06/14 09:42:54;;;;;;;11.52;9.07;;;;;;;28.56;100.00;100967.25;5101895;28;20041;-78
2022/06/14 09:46:11;;;;;;;10.70;9.20;;;;;;;28.44;100.00;100973.72;5104388;28;20051;-77
2022/06/14 09:49:06;;;;;;;10.63;9.55;;;;;;;28.17;100.00;100968.84;5104048;28;20032;-77
2022/06/14 09:52:19;;;;;;;11.57;9.10;;;;;;;27.86;100.00;100968.88;5104416;28;20024;-77
2022/06/14 09:55:26;;;;;;;11.02;9.10;;;;;;;28.06;100.00;100970.75;5083134;28;20028;-78
2022/06/14 09:58:15;;;;;;;11.93;9.23;;;;;;;27.89;100.00;100972.19;5082773;28;20063;-77
2022/06/14 10:01:01;;;;;;;12.23;10.38;;;;;;;27.39;100.00;100967.47;5096096;28;20024;-78
2022/06/14 10:04:02;;;;;;;13.90;10.10;;;;;;;27.50;100.00;100956.66;5082904;28;20099;-77
2022/06/14 10:07:06;;;;;;;11.95;10.43;;;;;;;27.16;100.00;100947.81;5083299;28;20334;-77
2022/06/14 10:09:57;;;;;;;12.00;10.57;;;;;;;26.82;100.00;100948.88;5094485;28;20039;-77
2022/06/14 10:13:10;;;;;;;13.02;11.13;;;;;;;27.00;100.00;100947.34;5076081;28;20027;-76
2022/06/14 10:16:32;;;;;;;13.70;12.30;;;;;;;26.88;100.00;100948.34;5078646;28;20071;-74
2022/06/14 10:19:26;;;;;;;13.85;12.40;;;;;;;26.94;100.00;100947.00;4998088;28;20061;-76
2022/06/14 10:22:52;;;;;;;14.05;12.10;;;;;;;26.52;100.00;100947.75;5095744;28;20067;-77
2022/06/14 10:29:14;;;;;;;14.65;11.27;;;;;;;26.60;100.00;100943.50;5091720;28;20097;-75
2022/06/14 10:32:06;;;;;;;11.77;9.43;;;;;;;26.81;100.00;100946.31;5095741;28;20024;-76
2022/06/14 10:34:55;;;;;;;12.80;10.23;;;;;;;26.96;100.00;100934.28;5080566;28;20032;-76
2022/06/14 10:38:03;;;;;;;10.65;9.43;;;;;;;27.24;100.00;100937.31;5090756;28;20106;-75
2022/06/14 10:41:08;;;;;;;13.98;9.88;;;;;;;27.82;100.00;100935.13;5094229;28;20057;-73
2022/06/14 10:44:00;;;;;;;13.00;10.15;;;;;;;27.63;100.00;100927.72;5098164;28;20024;-72
2022/06/14 10:47:01;;;;;;;10.07;9.07;;;;;;;27.67;100.00;100921.09;5096274;28;20112;-71
2022/06/14 10:50:15;;;;;;;10.52;9.40;;;;;;;27.73;100.00;100917.03;5097373;28;20046;-73
2022/06/14 10:53:25;;;;;;;11.57;8.70;;;;;;;28.26;100.00;100913.28;5078038;28;20036;-71
2022/06/14 10:56:56;;;;;;;12.48;8.32;;;;;;;28.99;100.00;100905.75;5106055;28;20039;-72
2022/06/14 11:00:05;;;;;;;9.52;8.50;;;;;;;28.90;100.00;100891.25;5060581;28;20417;-72
2022/06/14 11:03:15;;;;;;;9.15;8.00;;;;;;;29.40;100.00;100892.03;5082054;28;20031;-71
2022/06/14 11:06:18;;;;;;;10.07;8.35;;;;;;;29.03;100.00;100886.47;5081136;28;20016;-70
2022/06/14 11:09:28;;;;;;;7.80;7.00;;;;;;;30.06;100.00;100878.44;5101363;28;20102;-70
2022/06/14 11:12:19;;;;;;;8.50;7.45;;;;;;;29.13;100.00;100873.00;5098446;28;20115;-70
2022/06/14 11:15:15;;;;;;;10.98;7.63;;;;;;;28.93;100.00;100868.56;5097079;28;20032;-69
2022/06/14 11:18:23;;;;;;;8.60;7.30;;;;;;;28.89;100.00;100867.94;5094550;28;20387;-72
2022/06/14 11:21:09;;;;;;;8.50;7.63;;;;;;;28.30;100.00;100871.59;5100118;28;20048;-71
2022/06/14 11:24:03;;;;;;;11.00;7.22;;;;;;;29.28;100.00;100858.94;5099533;28;20132;-71
2022/06/14 11:27:07;;;;;;;11.02;8.23;;;;;;;29.86;100.00;100863.28;5093321;28;20379;-72
2022/06/14 11:30:18;;;;;;;9.65;7.97;;;;;;;28.97;100.00;100860.00;5101019;28;20036;-72
2022/06/14 11:33:09;;;;;;;11.15;10.05;;;;;;;30.07;100.00;100846.88;5082784;28;20432;-74
2022/06/14 11:36:34;;;;;;;9.48;8.55;;;;;;;30.35;100.00;100845.94;5082836;28;20367;-74
2022/06/14 11:39:20;;;;;;;11.13;8.95;;;;;;;30.67;100.00;100839.09;5083898;28;20101;-74
2022/06/14 11:42:35;;;;;;;9.88;8.88;;;;;;;30.00;100.00;100835.81;5084714;28;20027;-74
2022/06/14 11:45:51;;;;;;;10.18;9.18;;;;;;;30.53;100.00;100833.31;5075936;28;20089;-75
2022/06/14 11:49:07;;;;;;;13.32;8.98;;;;;;;30.83;100.00;100830.31;5084492;28;20094;-74
2022/06/14 11:51:58;;;;;;;13.40;9.20;;;;;;;31.12;100.00;100834.50;5091513;28;20032;-74
2022/06/14 11:55:11;;;;;;;13.15;9.15;;;;;;;30.79;100.00;100834.31;5082302;28;20118;-75
2022/06/14 11:58:22;;;;;;;9.73;8.50;;;;;;;31.04;100.00;100834.44;5091857;28;20808;-73
2022/06/14 12:01:30;;;;;;;12.25;9.15;;;;;;;31.33;100.00;100838.78;5100164;28;20034;-74
2022/06/14 12:04:31;;;;;;;12.13;9.68;;;;;;;30.47;100.00;100833.94;5095851;28;20020;-73
2022/06/14 12:07:31;;;;;;;9.48;8.40;;;;;;;31.04;100.00;100847.09;5093135;28;20537;-72
2022/06/14 12:10:59;;;;;;;9.48;8.30;;;;;;;31.46;100.00;100855.47;5091248;28;20066;-73
2022/06/14 12:14:11;;;;;;;10.45;8.20;;;;;;;31.44;100.00;100855.63;5091915;28;20031;-73
2022/06/14 12:17:22;;;;;;;10.23;8.90;;;;;;;31.61;100.00;100852.03;5097784;28;20546;-72
2022/06/14 12:20:17;;;;;;;9.02;8.23;;;;;;;31.22;100.00;100848.81;5041127;28;20380;-73
2022/06/14 12:23:14;;;;;;;11.35;8.07;;;;;;;30.21;100.00;100841.00;5103428;28;20351;-72
2022/06/14 12:26:34;;;;;;;9.90;8.75;;;;;;;30.84;100.00;100841.00;5080128;28;20035;-73
2022/06/14 12:29:28;;;;;;;10.90;8.85;;;;;;;30.86;100.00;100836.25;5080044;28;20032;-73
2022/06/14 12:32:43;;;;;;;11.88;8.43;;;;;;;31.19;100.00;100837.44;5081548;28;20059;-71
2022/06/14 12:35:35;;;;;;;9.90;8.90;;;;;;;30.81;100.00;100833.16;5076965;28;20040;-74
2022/06/14 12:38:28;;;;;;;11.05;8.57;;;;;;;30.37;100.00;100816.88;5081352;28;20036;-74
2022/06/14 12:41:31;;;;;;;8.88;7.95;;;;;;;30.57;100.00;100822.03;5101837;28;20049;-74
2022/06/14 12:44:28;;;;;;;9.10;8.20;;;;;;;30.88;100.00;100820.72;5095717;28;20036;-74
2022/06/14 12:47:25;;;;;;;12.00;8.77;;;;;;;30.71;100.00;100816.16;5077126;28;20031;-74
2022/06/14 12:50:37;;;;;;;10.20;9.10;;;;;;;29.82;100.00;100832.16;5088235;28;20419;-74
2022/06/14 12:53:43;;;;;;;12.38;7.38;;;;;;;29.28;100.00;100837.34;5092648;28;20058;-73
2022/06/14 12:56:43;;;;;;;7.93;6.68;;;;;;;28.66;100.00;100822.50;5067534;28;20031;-73
2022/06/14 12:59:41;;;;;;;13.52;6.03;;;;;;;28.53;100.00;100817.34;5093492;28;20452;-75
2022/06/14 13:02:48;;;;;;;10.15;5.78;;;;;;;28.23;100.00;100814.69;5083798;28;20035;-73
2022/06/14 13:05:41;;;;;;;8.48;5.82;;;;;;;28.10;100.00;100818.59;5095003;28;20016;-72
2022/06/14 13:09:13;;;;;;;21.23;6.50;;;;;;;27.81;100.00;100829.22;5092338;28;20032;-73
2022/06/14 13:12:11;;;;;;;13.27;6.47;;;;;;;26.89;100.00;100849.72;5059570;28;20050;-74
2022/06/14 13:15:39;;;;;;;22.58;9.38;;;;;;;26.65;100.00;100871.41;5090144;28;20024;-69
2022/06/14 13:18:33;;;;;;;22.17;10.07;;;;;;;24.73;100.00;100874.88;5082567;28;20081;-70
2022/06/14 13:21:31;;;;;;;16.83;10.18;;;;;;;23.90;100.00;100877.34;5095288;28;20055;-72
2022/06/14 13:24:38;;;;;;;16.67;10.77;;;;;;;23.34;100.00;100883.88;5087387;28;20118;-72
2022/06/14 13:27:57;;;;;;;19.02;14.18;;;;;;;23.48;100.00;100880.25;5099526;28;20032;-72
2022/06/14 13:30:50;;;;;;;15.57;11.75;;;;;;;23.81;100.00;100875.28;5096319;28;20016;-71
2022/06/14 13:34:11;;;;;;;12.88;11.30;;;;;;;23.96;100.00;100863.53;5077267;28;20027;-74
2022/06/14 13:37:09;;;;;;;16.80;14.18;;;;;;;24.35;100.00;100869.59;5061326;28;20040;-73
2022/06/14 13:40:21;;;;;;;13.60;10.98;;;;;;;24.42;100.00;100861.97;5104529;28;20114;-73
2022/06/14 13:43:12;;;;;;;14.82;9.80;;;;;;;24.49;100.00;100860.56;5071962;28;20039;-70
2022/06/14 13:46:22;;;;;;;11.95;9.80;;;;;;;24.68;100.00;100866.34;5081359;28;20414;-69
2022/06/14 13:49:26;;;;;;;15.43;10.00;;;;;;;24.64;100.00;100864.84;5096266;28;20039;-70
2022/06/14 13:52:55;;;;;;;13.80;10.98;;;;;;;24.87;100.00;100859.50;5090239;28;20027;-70
2022/06/14 13:55:50;;;;;;;11.63;10.43;;;;;;;25.36;100.00;100856.72;5031007;28;20032;-69